sensor_id;sensor_type;location;lat;lon;timestamp;P1;durP1;ratioP1;P2;durP2;ratioP2
50531;SDS011;36483;37.396;-122.212;2022-09-14T00:01:08;5.32;;;2.38;;
50531;SDS011;36483;37.396;-122.212;2022-09-14T00:03:35;3.88;;;2.10;;
50531;SDS011;36483;37.396;-122.212;2022-09-14T00:06:05;4.63;;;2.70;;
50531;SDS011;36483;37.396;-122.212;2022-09-14T00:08:32;4.40;;;2.70;;
50531;SDS011;36483;37.396;-122.212;2022-09-14T00:11:02;4.03;;;2.85;;
50531;SDS011;36483;37.396;-122.212;2022-09-14T00:13:29;4.95;;;2.53;;
50531;SDS011;36483;37.396;-122.212;2022-09-14T00:15:55;3.75;;;2.70;;
50531;SDS011;36483;37.396;-122.212;2022-09-14T00:18:21;3.13;;;2.38;;
50531;SDS011;36483;37.396;-122.212;2022-09-14T00:20:48;4.25;;;3.25;;
50531;SDS011;36483;37.396;-122.212;2022-09-14T00:23:15;5.10;;;2.75;;
50531;SDS011;36483;37.396;-122.212;2022-09-14T00:25:41;3.97;;;2.70;;
50531;SDS011;36483;37.396;-122.212;2022-09-14T00:28:07;4.43;;;2.67;;
50531;SDS011;36483;37.396;-122.212;2022-09-14T00:30:33;5.15;;;2.50;;
50531;SDS011;36483;37.396;-122.212;2022-09-14T00:32:59;5.28;;;2.90;;
50531;SDS011;36483;37.396;-122.212;2022-09-14T00:35:25;5.07;;;2.78;;
50531;SDS011;36483;37.396;-122.212;2022-09-14T00:37:51;5.47;;;2.88;;
50531;SDS011;36483;37.396;-122.212;2022-09-14T00:40:17;4.25;;;2.42;;
50531;SDS011;36483;37.396;-122.212;2022-09-14T00:42:43;3.28;;;2.50;;
50531;SDS011;36483;37.396;-122.212;2022-09-14T00:45:19;6.97;;;2.78;;
50531;SDS011;36483;37.396;-122.212;2022-09-14T00:47:48;3.75;;;2.75;;
50531;SDS011;36483;37.396;-122.212;2022-09-14T00:50:16;4.45;;;2.80;;
50531;SDS011;36483;37.396;-122.212;2022-09-14T00:52:43;6.75;;;2.72;;
50531;SDS011;36483;37.396;-122.212;2022-09-14T00:55:13;5.03;;;2.97;;
50531;SDS011;36483;37.396;-122.212;2022-09-14T00:57:58;6.38;;;2.90;;
50531;SDS011;36483;37.396;-122.212;2022-09-14T01:00:25;4.10;;;2.53;;
50531;SDS011;36483;37.396;-122.212;2022-09-14T01:03:11;4.93;;;2.42;;
50531;SDS011;36483;37.396;-122.212;2022-09-14T01:05:54;7.30;;;2.90;;
50531;SDS011;36483;37.396;-122.212;2022-09-14T01:18:31;4.80;;;2.65;;
50531;SDS011;36483;37.396;-122.212;2022-09-14T01:23:40;7.90;;;2.78;;
50531;SDS011;36483;37.396;-122.212;2022-09-14T01:29:05;4.47;;;3.00;;
50531;SDS011;36483;37.396;-122.212;2022-09-14T01:31:50;5.57;;;2.92;;
50531;SDS011;36483;37.396;-122.212;2022-09-14T01:37:02;5.85;;;3.28;;
50531;SDS011;36483;37.396;-122.212;2022-09-14T01:40:23;6.95;;;3.10;;
50531;SDS011;36483;37.396;-122.212;2022-09-14T01:42:29;4.13;;;2.92;;
50531;SDS011;36483;37.396;-122.212;2022-09-14T01:44:58;6.18;;;3.40;;
50531;SDS011;36483;37.396;-122.212;2022-09-14T01:47:28;3.75;;;2.65;;
50531;SDS011;36483;37.396;-122.212;2022-09-14T01:50:06;6.50;;;3.03;;
50531;SDS011;36483;37.396;-122.212;2022-09-14T01:52:39;7.82;;;3.10;;
50531;SDS011;36483;37.396;-122.212;2022-09-14T01:55:29;4.95;;;2.80;;
50531;SDS011;36483;37.396;-122.212;2022-09-14T01:58:19;6.25;;;3.90;;
50531;SDS011;36483;37.396;-122.212;2022-09-14T02:00:50;6.10;;;3.20;;
50531;SDS011;36483;37.396;-122.212;2022-09-14T02:03:19;4.78;;;3.00;;
50531;SDS011;36483;37.396;-122.212;2022-09-14T02:06:06;4.60;;;3.05;;
50531;SDS011;36483;37.396;-122.212;2022-09-14T02:08:37;4.35;;;3.08;;
50531;SDS011;36483;37.396;-122.212;2022-09-14T02:11:03;7.47;;;3.25;;
50531;SDS011;36483;37.396;-122.212;2022-09-14T02:13:29;3.80;;;2.58;;
50531;SDS011;36483;37.396;-122.212;2022-09-14T02:15:55;4.60;;;2.85;;
50531;SDS011;36483;37.396;-122.212;2022-09-14T02:18:22;3.90;;;2.72;;
50531;SDS011;36483;37.396;-122.212;2022-09-14T02:20:55;5.40;;;2.67;;
50531;SDS011;36483;37.396;-122.212;2022-09-14T02:23:34;5.43;;;2.45;;
50531;SDS011;36483;37.396;-122.212;2022-09-14T02:26:00;4.45;;;2.70;;
50531;SDS011;36483;37.396;-122.212;2022-09-14T02:28:26;5.10;;;2.70;;
50531;SDS011;36483;37.396;-122.212;2022-09-14T02:39:13;4.63;;;2.60;;
50531;SDS011;36483;37.396;-122.212;2022-09-14T02:41:50;5.88;;;2.80;;
50531;SDS011;36483;37.396;-122.212;2022-09-14T02:44:37;4.88;;;2.85;;
50531;SDS011;36483;37.396;-122.212;2022-09-14T02:47:27;4.90;;;2.95;;
50531;SDS011;36483;37.396;-122.212;2022-09-14T02:52:54;4.57;;;3.00;;
50531;SDS011;36483;37.396;-122.212;2022-09-14T02:55:29;7.80;;;2.88;;
50531;SDS011;36483;37.396;-122.212;2022-09-14T03:00:37;4.70;;;2.70;;
50531;SDS011;36483;37.396;-122.212;2022-09-14T03:03:06;6.88;;;3.00;;
50531;SDS011;36483;37.396;-122.212;2022-09-14T03:05:34;5.03;;;3.10;;
50531;SDS011;36483;37.396;-122.212;2022-09-14T03:08:00;3.67;;;2.58;;
50531;SDS011;36483;37.396;-122.212;2022-09-14T03:10:28;5.32;;;2.90;;
50531;SDS011;36483;37.396;-122.212;2022-09-14T03:12:55;4.82;;;2.95;;
50531;SDS011;36483;37.396;-122.212;2022-09-14T03:15:21;6.40;;;2.97;;
50531;SDS011;36483;37.396;-122.212;2022-09-14T03:17:48;2.90;;;2.33;;
50531;SDS011;36483;37.396;-122.212;2022-09-14T03:20:24;5.03;;;2.95;;
50531;SDS011;36483;37.396;-122.212;2022-09-14T03:22:51;5.47;;;2.80;;
50531;SDS011;36483;37.396;-122.212;2022-09-14T03:25:18;4.10;;;2.55;;
50531;SDS011;36483;37.396;-122.212;2022-09-14T03:27:48;3.97;;;3.00;;
50531;SDS011;36483;37.396;-122.212;2022-09-14T03:30:15;6.30;;;2.70;;
50531;SDS011;36483;37.396;-122.212;2022-09-14T03:32:42;4.90;;;2.75;;
50531;SDS011;36483;37.396;-122.212;2022-09-14T03:35:08;6.20;;;3.10;;
50531;SDS011;36483;37.396;-122.212;2022-09-14T03:37:39;7.43;;;2.92;;
50531;SDS011;36483;37.396;-122.212;2022-09-14T03:40:06;3.90;;;2.85;;
50531;SDS011;36483;37.396;-122.212;2022-09-14T03:42:33;5.85;;;2.90;;
50531;SDS011;36483;37.396;-122.212;2022-09-14T03:44:59;5.85;;;2.80;;
50531;SDS011;36483;37.396;-122.212;2022-09-14T03:47:25;6.05;;;2.92;;
50531;SDS011;36483;37.396;-122.212;2022-09-14T03:49:51;4.55;;;3.00;;
50531;SDS011;36483;37.396;-122.212;2022-09-14T03:52:18;3.75;;;2.50;;
50531;SDS011;36483;37.396;-122.212;2022-09-14T03:54:44;4.57;;;2.78;;
50531;SDS011;36483;37.396;-122.212;2022-09-14T03:57:10;6.97;;;2.95;;
50531;SDS011;36483;37.396;-122.212;2022-09-14T03:59:36;4.25;;;2.67;;
50531;SDS011;36483;37.396;-122.212;2022-09-14T04:02:02;4.53;;;2.83;;
50531;SDS011;36483;37.396;-122.212;2022-09-14T04:04:28;4.30;;;2.42;;
50531;SDS011;36483;37.396;-122.212;2022-09-14T04:06:55;3.72;;;2.40;;
50531;SDS011;36483;37.396;-122.212;2022-09-14T04:09:21;4.32;;;2.35;;
50531;SDS011;36483;37.396;-122.212;2022-09-14T04:11:47;5.10;;;2.80;;
50531;SDS011;36483;37.396;-122.212;2022-09-14T04:14:13;5.47;;;2.67;;
50531;SDS011;36483;37.396;-122.212;2022-09-14T04:16:39;5.05;;;2.67;;
50531;SDS011;36483;37.396;-122.212;2022-09-14T04:19:07;3.88;;;2.60;;
50531;SDS011;36483;37.396;-122.212;2022-09-14T04:21:33;3.20;;;2.60;;
50531;SDS011;36483;37.396;-122.212;2022-09-14T04:24:00;5.63;;;2.70;;
50531;SDS011;36483;37.396;-122.212;2022-09-14T04:26:26;4.53;;;2.90;;
50531;SDS011;36483;37.396;-122.212;2022-09-14T04:28:54;4.18;;;2.78;;
50531;SDS011;36483;37.396;-122.212;2022-09-14T04:31:21;5.65;;;2.83;;
50531;SDS011;36483;37.396;-122.212;2022-09-14T04:33:47;3.92;;;2.80;;
50531;SDS011;36483;37.396;-122.212;2022-09-14T04:36:16;3.92;;;2.88;;
50531;SDS011;36483;37.396;-122.212;2022-09-14T04:38:43;5.63;;;2.92;;
50531;SDS011;36483;37.396;-122.212;2022-09-14T04:41:11;4.40;;;2.67;;
50531;SDS011;36483;37.396;-122.212;2022-09-14T04:43:41;5.63;;;2.90;;
50531;SDS011;36483;37.396;-122.212;2022-09-14T04:46:12;4.18;;;2.50;;
50531;SDS011;36483;37.396;-122.212;2022-09-14T04:48:40;5.65;;;3.03;;
50531;SDS011;36483;37.396;-122.212;2022-09-14T04:51:11;5.65;;;2.95;;
50531;SDS011;36483;37.396;-122.212;2022-09-14T04:53:40;3.42;;;2.60;;
50531;SDS011;36483;37.396;-122.212;2022-09-14T04:56:08;4.57;;;2.60;;
50531;SDS011;36483;37.396;-122.212;2022-09-14T04:58:35;5.25;;;2.95;;
50531;SDS011;36483;37.396;-122.212;2022-09-14T05:01:06;5.13;;;3.08;;
50531;SDS011;36483;37.396;-122.212;2022-09-14T05:03:34;4.47;;;2.72;;
50531;SDS011;36483;37.396;-122.212;2022-09-14T05:06:03;4.32;;;3.22;;
50531;SDS011;36483;37.396;-122.212;2022-09-14T05:08:31;6.18;;;2.95;;
50531;SDS011;36483;37.396;-122.212;2022-09-14T05:10:58;6.20;;;3.05;;
50531;SDS011;36483;37.396;-122.212;2022-09-14T05:13:24;4.57;;;2.85;;
50531;SDS011;36483;37.396;-122.212;2022-09-14T05:15:50;5.82;;;3.00;;
50531;SDS011;36483;37.396;-122.212;2022-09-14T05:18:17;5.30;;;2.95;;
50531;SDS011;36483;37.396;-122.212;2022-09-14T05:20:43;5.45;;;3.13;;
50531;SDS011;36483;37.396;-122.212;2022-09-14T05:23:10;6.95;;;2.90;;
50531;SDS011;36483;37.396;-122.212;2022-09-14T05:25:36;3.95;;;2.78;;
50531;SDS011;36483;37.396;-122.212;2022-09-14T05:28:02;6.38;;;2.90;;
50531;SDS011;36483;37.396;-122.212;2022-09-14T05:30:28;4.50;;;3.17;;
50531;SDS011;36483;37.396;-122.212;2022-09-14T05:32:55;6.75;;;3.40;;
50531;SDS011;36483;37.396;-122.212;2022-09-14T05:35:21;7.15;;;2.95;;
50531;SDS011;36483;37.396;-122.212;2022-09-14T05:37:47;6.32;;;3.20;;
50531;SDS011;36483;37.396;-122.212;2022-09-14T05:40:13;5.88;;;3.22;;
50531;SDS011;36483;37.396;-122.212;2022-09-14T05:42:39;6.35;;;3.08;;
50531;SDS011;36483;37.396;-122.212;2022-09-14T05:45:05;4.60;;;3.17;;
50531;SDS011;36483;37.396;-122.212;2022-09-14T05:47:32;5.35;;;3.00;;
50531;SDS011;36483;37.396;-122.212;2022-09-14T05:49:58;6.13;;;3.05;;
50531;SDS011;36483;37.396;-122.212;2022-09-14T05:52:24;6.45;;;3.13;;
50531;SDS011;36483;37.396;-122.212;2022-09-14T05:54:50;7.93;;;3.20;;
50531;SDS011;36483;37.396;-122.212;2022-09-14T05:57:16;5.75;;;3.13;;
50531;SDS011;36483;37.396;-122.212;2022-09-14T05:59:42;7.22;;;3.50;;
50531;SDS011;36483;37.396;-122.212;2022-09-14T06:02:09;4.13;;;2.95;;
50531;SDS011;36483;37.396;-122.212;2022-09-14T06:04:35;5.95;;;2.95;;
50531;SDS011;36483;37.396;-122.212;2022-09-14T06:07:01;6.82;;;3.47;;
50531;SDS011;36483;37.396;-122.212;2022-09-14T06:09:27;6.18;;;3.10;;
50531;SDS011;36483;37.396;-122.212;2022-09-14T06:11:53;6.50;;;3.30;;
50531;SDS011;36483;37.396;-122.212;2022-09-14T06:14:19;7.20;;;3.70;;
50531;SDS011;36483;37.396;-122.212;2022-09-14T06:16:46;4.57;;;3.45;;
50531;SDS011;36483;37.396;-122.212;2022-09-14T06:19:12;5.13;;;3.38;;
50531;SDS011;36483;37.396;-122.212;2022-09-14T06:21:39;5.63;;;3.30;;
50531;SDS011;36483;37.396;-122.212;2022-09-14T06:24:08;6.00;;;3.75;;
50531;SDS011;36483;37.396;-122.212;2022-09-14T06:26:35;6.28;;;3.67;;
50531;SDS011;36483;37.396;-122.212;2022-09-14T06:29:01;5.72;;;3.60;;
50531;SDS011;36483;37.396;-122.212;2022-09-14T06:31:27;6.03;;;3.80;;
50531;SDS011;36483;37.396;-122.212;2022-09-14T06:33:53;6.28;;;3.83;;
50531;SDS011;36483;37.396;-122.212;2022-09-14T06:36:20;5.22;;;3.30;;
50531;SDS011;36483;37.396;-122.212;2022-09-14T06:38:48;7.05;;;3.60;;
50531;SDS011;36483;37.396;-122.212;2022-09-14T06:41:15;6.38;;;3.70;;
50531;SDS011;36483;37.396;-122.212;2022-09-14T06:43:54;5.97;;;3.45;;
50531;SDS011;36483;37.396;-122.212;2022-09-14T06:46:22;8.30;;;3.65;;
50531;SDS011;36483;37.396;-122.212;2022-09-14T06:51:28;6.20;;;3.40;;
50531;SDS011;36483;37.396;-122.212;2022-09-14T06:53:58;7.18;;;3.92;;
50531;SDS011;36483;37.396;-122.212;2022-09-14T06:56:25;5.40;;;3.80;;
50531;SDS011;36483;37.396;-122.212;2022-09-14T06:59:02;6.68;;;4.03;;
50531;SDS011;36483;37.396;-122.212;2022-09-14T07:01:29;5.47;;;3.33;;
50531;SDS011;36483;37.396;-122.212;2022-09-14T07:03:55;6.30;;;3.80;;
50531;SDS011;36483;37.396;-122.212;2022-09-14T07:06:23;8.52;;;4.07;;
50531;SDS011;36483;37.396;-122.212;2022-09-14T07:08:51;5.63;;;3.60;;
50531;SDS011;36483;37.396;-122.212;2022-09-14T07:11:18;5.30;;;3.70;;
50531;SDS011;36483;37.396;-122.212;2022-09-14T07:13:46;5.82;;;4.05;;
50531;SDS011;36483;37.396;-122.212;2022-09-14T07:16:12;6.22;;;3.70;;
50531;SDS011;36483;37.396;-122.212;2022-09-14T07:18:39;5.72;;;3.70;;
50531;SDS011;36483;37.396;-122.212;2022-09-14T07:21:10;8.10;;;4.25;;
50531;SDS011;36483;37.396;-122.212;2022-09-14T07:23:41;6.32;;;3.55;;
50531;SDS011;36483;37.396;-122.212;2022-09-14T07:26:12;6.70;;;4.05;;
50531;SDS011;36483;37.396;-122.212;2022-09-14T07:28:42;6.07;;;3.90;;
50531;SDS011;36483;37.396;-122.212;2022-09-14T07:31:15;5.38;;;3.90;;
50531;SDS011;36483;37.396;-122.212;2022-09-14T07:33:45;5.40;;;3.63;;
50531;SDS011;36483;37.396;-122.212;2022-09-14T07:36:12;5.90;;;3.92;;
50531;SDS011;36483;37.396;-122.212;2022-09-14T07:38:39;8.30;;;4.30;;
50531;SDS011;36483;37.396;-122.212;2022-09-14T07:41:05;7.40;;;4.25;;
50531;SDS011;36483;37.396;-122.212;2022-09-14T07:43:32;6.00;;;3.88;;
50531;SDS011;36483;37.396;-122.212;2022-09-14T07:46:02;7.95;;;3.88;;
50531;SDS011;36483;37.396;-122.212;2022-09-14T07:48:29;5.93;;;4.05;;
50531;SDS011;36483;37.396;-122.212;2022-09-14T07:51:03;6.38;;;3.90;;
50531;SDS011;36483;37.396;-122.212;2022-09-14T07:53:31;5.30;;;3.72;;
50531;SDS011;36483;37.396;-122.212;2022-09-14T07:56:00;4.95;;;3.63;;
50531;SDS011;36483;37.396;-122.212;2022-09-14T07:58:27;6.35;;;3.90;;
50531;SDS011;36483;37.396;-122.212;2022-09-14T08:00:57;6.00;;;3.88;;
50531;SDS011;36483;37.396;-122.212;2022-09-14T08:03:24;6.53;;;3.67;;
50531;SDS011;36483;37.396;-122.212;2022-09-14T08:05:56;7.40;;;3.80;;
50531;SDS011;36483;37.396;-122.212;2022-09-14T08:08:29;5.30;;;4.05;;
50531;SDS011;36483;37.396;-122.212;2022-09-14T08:11:07;5.32;;;3.75;;
50531;SDS011;36483;37.396;-122.212;2022-09-14T08:13:36;9.38;;;4.05;;
50531;SDS011;36483;37.396;-122.212;2022-09-14T08:16:09;6.95;;;3.88;;
50531;SDS011;36483;37.396;-122.212;2022-09-14T08:18:37;6.72;;;4.10;;
50531;SDS011;36483;37.396;-122.212;2022-09-14T08:21:06;6.03;;;4.65;;
50531;SDS011;36483;37.396;-122.212;2022-09-14T08:23:36;6.53;;;4.18;;
50531;SDS011;36483;37.396;-122.212;2022-09-14T08:26:04;8.30;;;4.43;;
50531;SDS011;36483;37.396;-122.212;2022-09-14T08:28:31;6.68;;;4.50;;
50531;SDS011;36483;37.396;-122.212;2022-09-14T08:31:04;8.75;;;4.03;;
50531;SDS011;36483;37.396;-122.212;2022-09-14T08:33:37;6.30;;;4.10;;
50531;SDS011;36483;37.396;-122.212;2022-09-14T08:36:05;7.03;;;3.90;;
50531;SDS011;36483;37.396;-122.212;2022-09-14T08:38:32;5.55;;;4.10;;
50531;SDS011;36483;37.396;-122.212;2022-09-14T08:41:04;7.38;;;4.25;;
50531;SDS011;36483;37.396;-122.212;2022-09-14T08:44:05;6.15;;;4.30;;
50531;SDS011;36483;37.396;-122.212;2022-09-14T08:46:48;8.07;;;3.92;;
50531;SDS011;36483;37.396;-122.212;2022-09-14T08:52:25;5.72;;;4.25;;
50531;SDS011;36483;37.396;-122.212;2022-09-14T08:55:00;9.77;;;4.68;;
50531;SDS011;36483;37.396;-122.212;2022-09-14T09:00:31;6.00;;;4.20;;
50531;SDS011;36483;37.396;-122.212;2022-09-14T09:03:19;7.55;;;4.88;;
50531;SDS011;36483;37.396;-122.212;2022-09-14T09:11:01;8.18;;;4.45;;
50531;SDS011;36483;37.396;-122.212;2022-09-14T09:13:31;5.55;;;3.97;;
50531;SDS011;36483;37.396;-122.212;2022-09-14T09:16:04;8.90;;;4.72;;
50531;SDS011;36483;37.396;-122.212;2022-09-14T09:18:45;7.47;;;4.05;;
50531;SDS011;36483;37.396;-122.212;2022-09-14T09:21:18;9.10;;;4.53;;
50531;SDS011;36483;37.396;-122.212;2022-09-14T09:23:47;7.43;;;4.68;;
50531;SDS011;36483;37.396;-122.212;2022-09-14T09:28:59;8.05;;;4.93;;
50531;SDS011;36483;37.396;-122.212;2022-09-14T09:31:33;7.68;;;4.57;;
50531;SDS011;36483;37.396;-122.212;2022-09-14T09:34:00;7.05;;;4.40;;
50531;SDS011;36483;37.396;-122.212;2022-09-14T09:36:32;6.15;;;4.20;;
50531;SDS011;36483;37.396;-122.212;2022-09-14T09:39:00;7.68;;;4.45;;
50531;SDS011;36483;37.396;-122.212;2022-09-14T09:41:28;6.72;;;4.43;;
50531;SDS011;36483;37.396;-122.212;2022-09-14T09:44:05;6.30;;;4.40;;
50531;SDS011;36483;37.396;-122.212;2022-09-14T09:46:44;7.32;;;4.13;;
50531;SDS011;36483;37.396;-122.212;2022-09-14T09:49:30;7.43;;;4.40;;
50531;SDS011;36483;37.396;-122.212;2022-09-14T09:52:09;8.88;;;3.95;;
50531;SDS011;36483;37.396;-122.212;2022-09-14T09:54:38;5.30;;;3.83;;
50531;SDS011;36483;37.396;-122.212;2022-09-14T09:57:06;6.63;;;3.90;;
50531;SDS011;36483;37.396;-122.212;2022-09-14T10:02:39;8.82;;;4.40;;
50531;SDS011;36483;37.396;-122.212;2022-09-14T10:07:42;6.10;;;4.50;;
50531;SDS011;36483;37.396;-122.212;2022-09-14T10:10:13;7.90;;;4.57;;
50531;SDS011;36483;37.396;-122.212;2022-09-14T10:12:45;7.90;;;4.70;;
50531;SDS011;36483;37.396;-122.212;2022-09-14T10:20:39;7.10;;;4.63;;
50531;SDS011;36483;37.396;-122.212;2022-09-14T10:25:42;7.28;;;4.40;;
50531;SDS011;36483;37.396;-122.212;2022-09-14T10:28:31;5.80;;;4.10;;
50531;SDS011;36483;37.396;-122.212;2022-09-14T10:31:03;8.18;;;4.55;;
50531;SDS011;36483;37.396;-122.212;2022-09-14T10:33:33;10.00;;;5.00;;
50531;SDS011;36483;37.396;-122.212;2022-09-14T10:36:37;5.43;;;4.15;;
50531;SDS011;36483;37.396;-122.212;2022-09-14T10:41:55;7.63;;;4.47;;
50531;SDS011;36483;37.396;-122.212;2022-09-14T11:07:58;8.02;;;5.22;;
50531;SDS011;36483;37.396;-122.212;2022-09-14T11:10:35;9.40;;;4.82;;
50531;SDS011;36483;37.396;-122.212;2022-09-14T11:22:20;8.18;;;4.85;;
50531;SDS011;36483;37.396;-122.212;2022-09-14T11:24:29;7.65;;;5.15;;
50531;SDS011;36483;37.396;-122.212;2022-09-14T11:30:15;6.70;;;5.13;;
50531;SDS011;36483;37.396;-122.212;2022-09-14T11:38:27;10.40;;;5.53;;
50531;SDS011;36483;37.396;-122.212;2022-09-14T11:40:56;10.63;;;6.05;;
50531;SDS011;36483;37.396;-122.212;2022-09-14T11:43:46;8.77;;;6.07;;
50531;SDS011;36483;37.396;-122.212;2022-09-14T11:46:38;9.20;;;5.55;;
50531;SDS011;36483;37.396;-122.212;2022-09-14T11:49:18;8.18;;;5.00;;
50531;SDS011;36483;37.396;-122.212;2022-09-14T11:51:54;8.55;;;5.63;;
50531;SDS011;36483;37.396;-122.212;2022-09-14T11:54:23;9.50;;;5.80;;
50531;SDS011;36483;37.396;-122.212;2022-09-14T11:56:57;7.93;;;5.78;;
50531;SDS011;36483;37.396;-122.212;2022-09-14T12:10:19;8.75;;;5.63;;
50531;SDS011;36483;37.396;-122.212;2022-09-14T12:17:48;9.00;;;5.82;;
50531;SDS011;36483;37.396;-122.212;2022-09-14T12:20:19;7.60;;;5.88;;
50531;SDS011;36483;37.396;-122.212;2022-09-14T12:22:48;9.45;;;5.70;;
50531;SDS011;36483;37.396;-122.212;2022-09-14T12:25:18;8.38;;;5.53;;
50531;SDS011;36483;37.396;-122.212;2022-09-14T12:27:47;8.20;;;5.88;;
50531;SDS011;36483;37.396;-122.212;2022-09-14T12:30:33;8.07;;;5.72;;
50531;SDS011;36483;37.396;-122.212;2022-09-14T12:33:00;7.75;;;5.63;;
50531;SDS011;36483;37.396;-122.212;2022-09-14T12:56:30;11.23;;;6.93;;
50531;SDS011;36483;37.396;-122.212;2022-09-14T13:02:52;10.00;;;6.57;;
50531;SDS011;36483;37.396;-122.212;2022-09-14T13:07:22;9.45;;;5.88;;
50531;SDS011;36483;37.396;-122.212;2022-09-14T13:09:53;10.50;;;6.18;;
50531;SDS011;36483;37.396;-122.212;2022-09-14T13:15:07;12.77;;;6.20;;
50531;SDS011;36483;37.396;-122.212;2022-09-14T13:17:54;9.15;;;6.40;;
50531;SDS011;36483;37.396;-122.212;2022-09-14T13:20:25;11.77;;;6.43;;
50531;SDS011;36483;37.396;-122.212;2022-09-14T13:22:52;8.25;;;5.97;;
50531;SDS011;36483;37.396;-122.212;2022-09-14T13:25:29;9.20;;;6.20;;
50531;SDS011;36483;37.396;-122.212;2022-09-14T13:27:58;9.82;;;6.25;;
50531;SDS011;36483;37.396;-122.212;2022-09-14T13:30:32;8.25;;;6.10;;
50531;SDS011;36483;37.396;-122.212;2022-09-14T13:32:59;11.25;;;6.55;;
50531;SDS011;36483;37.396;-122.212;2022-09-14T13:35:33;8.98;;;6.35;;
50531;SDS011;36483;37.396;-122.212;2022-09-14T13:38:06;8.60;;;6.15;;
50531;SDS011;36483;37.396;-122.212;2022-09-14T13:40:35;10.43;;;6.22;;
50531;SDS011;36483;37.396;-122.212;2022-09-14T13:43:01;9.18;;;6.15;;
50531;SDS011;36483;37.396;-122.212;2022-09-14T13:45:27;8.15;;;6.00;;
50531;SDS011;36483;37.396;-122.212;2022-09-14T13:47:53;8.27;;;6.05;;
50531;SDS011;36483;37.396;-122.212;2022-09-14T13:50:21;10.02;;;6.22;;
50531;SDS011;36483;37.396;-122.212;2022-09-14T13:52:49;10.15;;;6.35;;
50531;SDS011;36483;37.396;-122.212;2022-09-14T13:55:21;10.68;;;6.40;;
50531;SDS011;36483;37.396;-122.212;2022-09-14T14:00:31;9.07;;;6.50;;
50531;SDS011;36483;37.396;-122.212;2022-09-14T14:03:02;9.50;;;6.88;;
50531;SDS011;36483;37.396;-122.212;2022-09-14T14:05:33;10.50;;;6.68;;
50531;SDS011;36483;37.396;-122.212;2022-09-14T14:08:04;9.35;;;5.85;;
50531;SDS011;36483;37.396;-122.212;2022-09-14T14:11:05;10.65;;;6.63;;
50531;SDS011;36483;37.396;-122.212;2022-09-14T14:13:33;8.40;;;6.35;;
50531;SDS011;36483;37.396;-122.212;2022-09-14T14:18:53;8.50;;;6.28;;
50531;SDS011;36483;37.396;-122.212;2022-09-14T14:23:47;8.35;;;5.97;;
50531;SDS011;36483;37.396;-122.212;2022-09-14T14:26:24;11.73;;;6.47;;
50531;SDS011;36483;37.396;-122.212;2022-09-14T14:28:51;10.60;;;6.75;;
50531;SDS011;36483;37.396;-122.212;2022-09-14T14:31:19;8.90;;;6.35;;
50531;SDS011;36483;37.396;-122.212;2022-09-14T14:33:48;11.45;;;6.63;;
50531;SDS011;36483;37.396;-122.212;2022-09-14T14:36:15;10.50;;;7.00;;
50531;SDS011;36483;37.396;-122.212;2022-09-14T14:38:43;8.40;;;6.45;;
50531;SDS011;36483;37.396;-122.212;2022-09-14T14:41:15;10.23;;;6.50;;
50531;SDS011;36483;37.396;-122.212;2022-09-14T14:43:43;11.05;;;6.72;;
50531;SDS011;36483;37.396;-122.212;2022-09-14T14:46:14;9.02;;;6.78;;
50531;SDS011;36483;37.396;-122.212;2022-09-14T14:48:41;11.85;;;7.00;;
50531;SDS011;36483;37.396;-122.212;2022-09-14T14:51:13;9.70;;;6.55;;
50531;SDS011;36483;37.396;-122.212;2022-09-14T14:53:39;9.10;;;6.43;;
50531;SDS011;36483;37.396;-122.212;2022-09-14T14:56:08;12.63;;;7.28;;
50531;SDS011;36483;37.396;-122.212;2022-09-14T14:58:41;10.18;;;7.60;;
50531;SDS011;36483;37.396;-122.212;2022-09-14T15:01:11;12.60;;;8.35;;
50531;SDS011;36483;37.396;-122.212;2022-09-14T15:03:57;11.63;;;7.47;;
50531;SDS011;36483;37.396;-122.212;2022-09-14T15:06:25;13.30;;;8.90;;
50531;SDS011;36483;37.396;-122.212;2022-09-14T15:08:53;12.02;;;9.15;;
50531;SDS011;36483;37.396;-122.212;2022-09-14T15:11:20;15.93;;;9.43;;
50531;SDS011;36483;37.396;-122.212;2022-09-14T15:13:46;14.63;;;8.88;;
50531;SDS011;36483;37.396;-122.212;2022-09-14T15:16:13;15.77;;;9.90;;
50531;SDS011;36483;37.396;-122.212;2022-09-14T15:18:39;16.75;;;9.85;;
50531;SDS011;36483;37.396;-122.212;2022-09-14T15:21:06;11.57;;;8.75;;
50531;SDS011;36483;37.396;-122.212;2022-09-14T15:23:32;14.70;;;8.57;;
50531;SDS011;36483;37.396;-122.212;2022-09-14T15:25:58;13.95;;;9.63;;
50531;SDS011;36483;37.396;-122.212;2022-09-14T15:28:25;12.93;;;8.40;;
50531;SDS011;36483;37.396;-122.212;2022-09-14T15:30:51;15.23;;;9.43;;
50531;SDS011;36483;37.396;-122.212;2022-09-14T15:33:17;10.73;;;7.78;;
50531;SDS011;36483;37.396;-122.212;2022-09-14T15:35:44;10.57;;;7.20;;
50531;SDS011;36483;37.396;-122.212;2022-09-14T15:38:10;11.60;;;7.75;;
50531;SDS011;36483;37.396;-122.212;2022-09-14T15:40:36;9.57;;;6.65;;
50531;SDS011;36483;37.396;-122.212;2022-09-14T15:43:02;10.30;;;6.55;;
50531;SDS011;36483;37.396;-122.212;2022-09-14T15:45:28;10.32;;;6.60;;
50531;SDS011;36483;37.396;-122.212;2022-09-14T15:47:54;10.43;;;6.63;;
50531;SDS011;36483;37.396;-122.212;2022-09-14T15:50:20;10.13;;;6.32;;
50531;SDS011;36483;37.396;-122.212;2022-09-14T15:52:47;10.20;;;6.38;;
50531;SDS011;36483;37.396;-122.212;2022-09-14T15:55:13;7.97;;;6.00;;
50531;SDS011;36483;37.396;-122.212;2022-09-14T15:57:39;10.77;;;6.45;;
50531;SDS011;36483;37.396;-122.212;2022-09-14T16:00:07;8.85;;;6.32;;
50531;SDS011;36483;37.396;-122.212;2022-09-14T16:02:35;9.00;;;6.10;;
50531;SDS011;36483;37.396;-122.212;2022-09-14T16:05:01;10.63;;;6.50;;
50531;SDS011;36483;37.396;-122.212;2022-09-14T16:07:27;10.82;;;6.40;;
50531;SDS011;36483;37.396;-122.212;2022-09-14T16:09:54;9.52;;;6.65;;
50531;SDS011;36483;37.396;-122.212;2022-09-14T16:12:20;10.23;;;7.00;;
50531;SDS011;36483;37.396;-122.212;2022-09-14T16:14:46;8.02;;;5.95;;
50531;SDS011;36483;37.396;-122.212;2022-09-14T16:17:12;10.32;;;6.07;;
50531;SDS011;36483;37.396;-122.212;2022-09-14T16:19:39;10.23;;;6.50;;
50531;SDS011;36483;37.396;-122.212;2022-09-14T16:22:05;12.38;;;6.28;;
50531;SDS011;36483;37.396;-122.212;2022-09-14T16:24:32;12.45;;;6.32;;
50531;SDS011;36483;37.396;-122.212;2022-09-14T16:26:58;9.77;;;6.20;;
50531;SDS011;36483;37.396;-122.212;2022-09-14T16:29:24;9.82;;;5.90;;
50531;SDS011;36483;37.396;-122.212;2022-09-14T16:31:51;9.82;;;5.93;;
50531;SDS011;36483;37.396;-122.212;2022-09-14T16:34:19;11.20;;;6.28;;
50531;SDS011;36483;37.396;-122.212;2022-09-14T16:36:49;11.10;;;6.05;;
50531;SDS011;36483;37.396;-122.212;2022-09-14T16:39:16;10.77;;;6.32;;
50531;SDS011;36483;37.396;-122.212;2022-09-14T16:41:44;7.57;;;5.55;;
50531;SDS011;36483;37.396;-122.212;2022-09-14T16:44:12;9.18;;;6.20;;
50531;SDS011;36483;37.396;-122.212;2022-09-14T16:46:40;9.88;;;5.60;;
50531;SDS011;36483;37.396;-122.212;2022-09-14T16:49:06;11.30;;;5.80;;
50531;SDS011;36483;37.396;-122.212;2022-09-14T16:51:32;11.10;;;6.30;;
50531;SDS011;36483;37.396;-122.212;2022-09-14T16:53:59;9.05;;;5.63;;
50531;SDS011;36483;37.396;-122.212;2022-09-14T16:56:29;7.57;;;5.70;;
50531;SDS011;36483;37.396;-122.212;2022-09-14T17:01:30;11.43;;;5.63;;
50531;SDS011;36483;37.396;-122.212;2022-09-14T17:03:59;10.45;;;5.75;;